sensor_id;sensor_type;location;lat;lon;timestamp;temperature;humidity
23259;DHT22;11798;51.528;7.240;2022-12-18T00:02:12;-5.50;99.90
23259;DHT22;11798;51.528;7.240;2022-12-18T00:04:38;-5.50;99.90
23259;DHT22;11798;51.528;7.240;2022-12-18T00:07:03;-5.50;99.90
23259;DHT22;11798;51.528;7.240;2022-12-18T00:09:29;-5.50;99.90
23259;DHT22;11798;51.528;7.240;2022-12-18T00:11:55;-5.60;99.90
23259;DHT22;11798;51.528;7.240;2022-12-18T00:14:20;-5.60;99.90
23259;DHT22;11798;51.528;7.240;2022-12-18T00:16:46;-5.60;99.90
23259;DHT22;11798;51.528;7.240;2022-12-18T00:19:13;-5.60;99.90
23259;DHT22;11798;51.528;7.240;2022-12-18T00:21:39;-5.60;99.90
23259;DHT22;11798;51.528;7.240;2022-12-18T00:24:05;-5.60;99.90
23259;DHT22;11798;51.528;7.240;2022-12-18T00:26:32;-5.60;99.90
23259;DHT22;11798;51.528;7.240;2022-12-18T00:29:04;-5.60;99.90
23259;DHT22;11798;51.528;7.240;2022-12-18T00:31:30;-5.60;99.90
23259;DHT22;11798;51.528;7.240;2022-12-18T00:33:56;-5.70;99.90
23259;DHT22;11798;51.528;7.240;2022-12-18T00:36:24;-5.70;99.90
23259;DHT22;11798;51.528;7.240;2022-12-18T00:38:50;-5.70;99.90
23259;DHT22;11798;51.528;7.240;2022-12-18T00:41:17;-5.70;99.90
23259;DHT22;11798;51.528;7.240;2022-12-18T00:44:04;-5.70;99.90
23259;DHT22;11798;51.528;7.240;2022-12-18T00:46:29;-5.80;99.90
23259;DHT22;11798;51.528;7.240;2022-12-18T00:48:55;-5.80;99.90
23259;DHT22;11798;51.528;7.240;2022-12-18T00:51:21;-5.80;99.90
23259;DHT22;11798;51.528;7.240;2022-12-18T00:53:46;-5.90;99.90
23259;DHT22;11798;51.528;7.240;2022-12-18T00:56:12;-5.80;99.90
23259;DHT22;11798;51.528;7.240;2022-12-18T00:58:37;-5.80;99.90
23259;DHT22;11798;51.528;7.240;2022-12-18T01:01:07;-5.70;99.90
23259;DHT22;11798;51.528;7.240;2022-12-18T01:03:33;-5.70;99.90
23259;DHT22;11798;51.528;7.240;2022-12-18T01:05:58;-5.80;99.90
23259;DHT22;11798;51.528;7.240;2022-12-18T01:08:24;-5.90;99.90
23259;DHT22;11798;51.528;7.240;2022-12-18T01:10:50;-6.00;99.90
23259;DHT22;11798;51.528;7.240;2022-12-18T01:13:16;-5.90;99.90
23259;DHT22;11798;51.528;7.240;2022-12-18T01:15:50;-5.80;99.90
23259;DHT22;11798;51.528;7.240;2022-12-18T01:18:16;-5.90;99.90
23259;DHT22;11798;51.528;7.240;2022-12-18T01:20:42;-6.10;99.90
23259;DHT22;11798;51.528;7.240;2022-12-18T01:23:08;-5.90;99.90
23259;DHT22;11798;51.528;7.240;2022-12-18T01:25:36;-5.90;99.90
23259;DHT22;11798;51.528;7.240;2022-12-18T01:28:02;-5.90;99.90
23259;DHT22;11798;51.528;7.240;2022-12-18T01:30:28;-5.80;99.90
23259;DHT22;11798;51.528;7.240;2022-12-18T01:32:53;-5.80;99.90
23259;DHT22;11798;51.528;7.240;2022-12-18T01:35:19;-5.80;99.90
23259;DHT22;11798;51.528;7.240;2022-12-18T01:37:45;-5.80;99.90
23259;DHT22;11798;51.528;7.240;2022-12-18T01:40:10;-5.80;99.90
23259;DHT22;11798;51.528;7.240;2022-12-18T01:42:36;-5.80;99.90
23259;DHT22;11798;51.528;7.240;2022-12-18T01:50:20;-5.90;99.90
23259;DHT22;11798;51.528;7.240;2022-12-18T01:53:02;-5.90;99.90
23259;DHT22;11798;51.528;7.240;2022-12-18T01:55:31;-6.00;99.90
23259;DHT22;11798;51.528;7.240;2022-12-18T01:57:58;-5.90;99.90
23259;DHT22;11798;51.528;7.240;2022-12-18T02:00:26;-5.80;99.90
23259;DHT22;11798;51.528;7.240;2022-12-18T02:02:52;-5.80;99.90
23259;DHT22;11798;51.528;7.240;2022-12-18T02:05:34;-5.70;99.90
23259;DHT22;11798;51.528;7.240;2022-12-18T02:08:34;-5.70;99.90
23259;DHT22;11798;51.528;7.240;2022-12-18T02:11:07;-5.70;99.90
23259;DHT22;11798;51.528;7.240;2022-12-18T02:14:00;-5.70;99.90
23259;DHT22;11798;51.528;7.240;2022-12-18T02:27:24;-6.00;99.90
23259;DHT22;11798;51.528;7.240;2022-12-18T02:29:53;-5.90;99.90
23259;DHT22;11798;51.528;7.240;2022-12-18T02:32:31;-5.90;99.90
23259;DHT22;11798;51.528;7.240;2022-12-18T02:34:59;-5.80;99.90
23259;DHT22;11798;51.528;7.240;2022-12-18T02:37:27;-5.80;99.90
23259;DHT22;11798;51.528;7.240;2022-12-18T02:39:55;-5.80;99.90
23259;DHT22;11798;51.528;7.240;2022-12-18T02:42:22;-5.80;99.90
23259;DHT22;11798;51.528;7.240;2022-12-18T02:44:50;-5.90;99.90
23259;DHT22;11798;51.528;7.240;2022-12-18T02:47:19;-5.80;99.90
23259;DHT22;11798;51.528;7.240;2022-12-18T02:50:31;-5.80;99.90
23259;DHT22;11798;51.528;7.240;2022-12-18T02:53:27;-5.90;99.90
23259;DHT22;11798;51.528;7.240;2022-12-18T02:56:16;-5.80;99.90
23259;DHT22;11798;51.528;7.240;2022-12-18T02:59:17;-5.90;99.90
23259;DHT22;11798;51.528;7.240;2022-12-18T03:01:51;-5.90;99.90
23259;DHT22;11798;51.528;7.240;2022-12-18T03:04:30;-5.90;99.90
23259;DHT22;11798;51.528;7.240;2022-12-18T03:07:01;-5.90;99.90
23259;DHT22;11798;51.528;7.240;2022-12-18T03:09:36;-5.90;99.90
23259;DHT22;11798;51.528;7.240;2022-12-18T03:12:34;-5.90;99.90
23259;DHT22;11798;51.528;7.240;2022-12-18T03:17:33;-6.20;99.90
23259;DHT22;11798;51.528;7.240;2022-12-18T03:20:07;-6.30;99.90
23259;DHT22;11798;51.528;7.240;2022-12-18T03:22:35;-6.30;99.90
23259;DHT22;11798;51.528;7.240;2022-12-18T03:25:06;-6.20;99.90
23259;DHT22;11798;51.528;7.240;2022-12-18T03:27:33;-6.20;99.90
23259;DHT22;11798;51.528;7.240;2022-12-18T03:30:07;-6.20;99.90
23259;DHT22;11798;51.528;7.240;2022-12-18T03:32:56;-6.20;99.90
23259;DHT22;11798;51.528;7.240;2022-12-18T03:35:28;-6.20;99.90
23259;DHT22;11798;51.528;7.240;2022-12-18T03:37:55;-6.10;99.90
23259;DHT22;11798;51.528;7.240;2022-12-18T03:40:26;-6.20;99.90
23259;DHT22;11798;51.528;7.240;2022-12-18T03:45:56;-6.20;99.90
23259;DHT22;11798;51.528;7.240;2022-12-18T03:48:38;-6.20;99.90
23259;DHT22;11798;51.528;7.240;2022-12-18T03:53:58;-6.20;99.90
23259;DHT22;11798;51.528;7.240;2022-12-18T03:56:28;-6.20;99.90
23259;DHT22;11798;51.528;7.240;2022-12-18T03:58:56;-6.30;99.90
23259;DHT22;11798;51.528;7.240;2022-12-18T04:01:31;-6.30;99.90
23259;DHT22;11798;51.528;7.240;2022-12-18T04:03:59;-6.40;99.90
23259;DHT22;11798;51.528;7.240;2022-12-18T04:06:26;-6.50;99.90
23259;DHT22;11798;51.528;7.240;2022-12-18T04:08:52;-6.40;99.90
23259;DHT22;11798;51.528;7.240;2022-12-18T04:11:17;-6.40;99.90
23259;DHT22;11798;51.528;7.240;2022-12-18T04:13:43;-6.50;99.90
23259;DHT22;11798;51.528;7.240;2022-12-18T04:16:09;-6.40;99.90
23259;DHT22;11798;51.528;7.240;2022-12-18T04:18:36;-6.40;99.90
23259;DHT22;11798;51.528;7.240;2022-12-18T04:21:02;-6.40;99.90
23259;DHT22;11798;51.528;7.240;2022-12-18T04:23:28;-6.30;99.90
23259;DHT22;11798;51.528;7.240;2022-12-18T04:25:53;-6.40;99.90
23259;DHT22;11798;51.528;7.240;2022-12-18T04:28:19;-6.60;99.90
23259;DHT22;11798;51.528;7.240;2022-12-18T04:30:45;-6.50;99.90
23259;DHT22;11798;51.528;7.240;2022-12-18T04:33:17;-6.40;99.90
23259;DHT22;11798;51.528;7.240;2022-12-18T04:35:43;-6.40;99.90
23259;DHT22;11798;51.528;7.240;2022-12-18T04:38:09;-6.40;99.90
23259;DHT22;11798;51.528;7.240;2022-12-18T04:40:36;-6.30;99.90
23259;DHT22;11798;51.528;7.240;2022-12-18T04:43:02;-6.40;99.90
23259;DHT22;11798;51.528;7.240;2022-12-18T04:45:28;-6.40;99.90
23259;DHT22;11798;51.528;7.240;2022-12-18T04:47:53;-6.30;99.90
23259;DHT22;11798;51.528;7.240;2022-12-18T04:50:19;-6.20;99.90
23259;DHT22;11798;51.528;7.240;2022-12-18T04:52:44;-6.30;99.90
23259;DHT22;11798;51.528;7.240;2022-12-18T04:55:10;-6.20;99.90
23259;DHT22;11798;51.528;7.240;2022-12-18T04:57:35;-6.30;99.90
23259;DHT22;11798;51.528;7.240;2022-12-18T05:00:02;-6.30;99.90
23259;DHT22;11798;51.528;7.240;2022-12-18T05:02:28;-6.30;99.90
23259;DHT22;11798;51.528;7.240;2022-12-18T05:04:53;-6.30;99.90
23259;DHT22;11798;51.528;7.240;2022-12-18T05:07:19;-6.30;99.90
23259;DHT22;11798;51.528;7.240;2022-12-18T05:09:45;-6.30;99.90
23259;DHT22;11798;51.528;7.240;2022-12-18T05:12:10;-6.20;99.90
23259;DHT22;11798;51.528;7.240;2022-12-18T05:14:36;-6.30;99.90
23259;DHT22;11798;51.528;7.240;2022-12-18T05:17:01;-6.20;99.90
23259;DHT22;11798;51.528;7.240;2022-12-18T05:19:27;-6.20;99.90
23259;DHT22;11798;51.528;7.240;2022-12-18T05:21:53;-6.20;99.90
23259;DHT22;11798;51.528;7.240;2022-12-18T05:24:18;-6.20;99.90
23259;DHT22;11798;51.528;7.240;2022-12-18T05:26:44;-6.20;99.90
23259;DHT22;11798;51.528;7.240;2022-12-18T05:29:09;-6.10;99.90
23259;DHT22;11798;51.528;7.240;2022-12-18T05:31:38;-6.20;99.90
23259;DHT22;11798;51.528;7.240;2022-12-18T05:34:03;-6.20;99.90
23259;DHT22;11798;51.528;7.240;2022-12-18T05:36:29;-6.20;99.90
23259;DHT22;11798;51.528;7.240;2022-12-18T05:38:54;-6.10;99.90
23259;DHT22;11798;51.528;7.240;2022-12-18T05:41:20;-6.10;99.90
23259;DHT22;11798;51.528;7.240;2022-12-18T05:43:46;-6.10;99.90
23259;DHT22;11798;51.528;7.240;2022-12-18T05:46:14;-6.20;99.90
23259;DHT22;11798;51.528;7.240;2022-12-18T05:48:41;-6.20;99.90
23259;DHT22;11798;51.528;7.240;2022-12-18T05:51:09;-6.20;99.90
23259;DHT22;11798;51.528;7.240;2022-12-18T05:53:36;-6.10;99.90
23259;DHT22;11798;51.528;7.240;2022-12-18T05:56:07;-6.20;99.90
23259;DHT22;11798;51.528;7.240;2022-12-18T05:58:33;-6.30;99.90
23259;DHT22;11798;51.528;7.240;2022-12-18T06:01:10;-6.30;99.90
23259;DHT22;11798;51.528;7.240;2022-12-18T06:03:36;-6.30;99.90
23259;DHT22;11798;51.528;7.240;2022-12-18T06:06:02;-6.30;99.90
23259;DHT22;11798;51.528;7.240;2022-12-18T06:08:28;-6.30;99.90
23259;DHT22;11798;51.528;7.240;2022-12-18T06:10:53;-6.30;99.90
23259;DHT22;11798;51.528;7.240;2022-12-18T06:13:20;-6.30;99.90
23259;DHT22;11798;51.528;7.240;2022-12-18T06:15:45;-6.30;99.90
23259;DHT22;11798;51.528;7.240;2022-12-18T06:18:11;-6.30;99.90
23259;DHT22;11798;51.528;7.240;2022-12-18T06:20:37;-6.30;99.90
23259;DHT22;11798;51.528;7.240;2022-12-18T06:23:05;-6.30;99.90
23259;DHT22;11798;51.528;7.240;2022-12-18T06:25:31;-6.30;99.90
23259;DHT22;11798;51.528;7.240;2022-12-18T06:27:57;-6.40;99.90
23259;DHT22;11798;51.528;7.240;2022-12-18T06:30:22;-6.30;99.90
23259;DHT22;11798;51.528;7.240;2022-12-18T06:32:49;-6.40;99.90
23259;DHT22;11798;51.528;7.240;2022-12-18T06:35:15;-6.40;99.90
23259;DHT22;11798;51.528;7.240;2022-12-18T06:37:40;-6.40;99.90
23259;DHT22;11798;51.528;7.240;2022-12-18T06:40:06;-6.40;99.90
23259;DHT22;11798;51.528;7.240;2022-12-18T06:42:32;-6.40;99.90
23259;DHT22;11798;51.528;7.240;2022-12-18T06:44:58;-6.40;99.90
23259;DHT22;11798;51.528;7.240;2022-12-18T06:47:23;-6.50;99.90
23259;DHT22;11798;51.528;7.240;2022-12-18T06:49:49;-6.50;99.90
23259;DHT22;11798;51.528;7.240;2022-12-18T06:52:15;-6.50;99.90
23259;DHT22;11798;51.528;7.240;2022-12-18T06:54:40;-6.60;99.90
23259;DHT22;11798;51.528;7.240;2022-12-18T06:57:06;-6.60;99.90
23259;DHT22;11798;51.528;7.240;2022-12-18T06:59:31;-6.50;99.90
23259;DHT22;11798;51.528;7.240;2022-12-18T07:01:57;-6.50;99.90
23259;DHT22;11798;51.528;7.240;2022-12-18T07:04:28;-6.50;99.90
23259;DHT22;11798;51.528;7.240;2022-12-18T07:06:53;-6.50;99.90
23259;DHT22;11798;51.528;7.240;2022-12-18T07:09:19;-6.50;99.90
23259;DHT22;11798;51.528;7.240;2022-12-18T07:11:44;-6.50;99.90
23259;DHT22;11798;51.528;7.240;2022-12-18T07:14:10;-6.50;99.90
23259;DHT22;11798;51.528;7.240;2022-12-18T07:16:36;-6.50;99.90
23259;DHT22;11798;51.528;7.240;2022-12-18T07:19:01;-6.50;99.90
23259;DHT22;11798;51.528;7.240;2022-12-18T07:21:27;-6.50;99.90
23259;DHT22;11798;51.528;7.240;2022-12-18T07:23:52;-6.50;99.90
23259;DHT22;11798;51.528;7.240;2022-12-18T07:26:20;-6.50;99.90
23259;DHT22;11798;51.528;7.240;2022-12-18T07:28:46;-6.50;99.90
23259;DHT22;11798;51.528;7.240;2022-12-18T07:31:15;-6.50;99.90
23259;DHT22;11798;51.528;7.240;2022-12-18T07:33:42;-6.50;99.90
23259;DHT22;11798;51.528;7.240;2022-12-18T07:36:09;-6.50;99.90
23259;DHT22;11798;51.528;7.240;2022-12-18T07:38:35;-6.50;99.90
23259;DHT22;11798;51.528;7.240;2022-12-18T07:41:02;-6.50;99.90
23259;DHT22;11798;51.528;7.240;2022-12-18T07:43:28;-6.50;99.90
23259;DHT22;11798;51.528;7.240;2022-12-18T07:45:53;-6.40;99.90
23259;DHT22;11798;51.528;7.240;2022-12-18T07:48:19;-6.40;99.90
23259;DHT22;11798;51.528;7.240;2022-12-18T07:50:45;-6.40;99.90
23259;DHT22;11798;51.528;7.240;2022-12-18T07:53:10;-6.40;99.90
23259;DHT22;11798;51.528;7.240;2022-12-18T07:55:36;-6.40;99.90
23259;DHT22;11798;51.528;7.240;2022-12-18T07:58:03;-6.40;99.90
23259;DHT22;11798;51.528;7.240;2022-12-18T08:00:29;-6.30;99.90
23259;DHT22;11798;51.528;7.240;2022-12-18T08:02:54;-6.30;99.90
23259;DHT22;11798;51.528;7.240;2022-12-18T08:05:20;-6.30;99.90
23259;DHT22;11798;51.528;7.240;2022-12-18T08:07:46;-6.30;99.90
23259;DHT22;11798;51.528;7.240;2022-12-18T08:10:12;-6.30;99.90
23259;DHT22;11798;51.528;7.240;2022-12-18T08:12:38;-6.50;99.90
23259;DHT22;11798;51.528;7.240;2022-12-18T08:15:04;-6.30;99.90
23259;DHT22;11798;51.528;7.240;2022-12-18T08:17:29;-6.40;99.90
23259;DHT22;11798;51.528;7.240;2022-12-18T08:19:55;-6.30;99.90
23259;DHT22;11798;51.528;7.240;2022-12-18T08:22:21;-6.20;99.90
23259;DHT22;11798;51.528;7.240;2022-12-18T08:24:55;-6.10;99.90
23259;DHT22;11798;51.528;7.240;2022-12-18T08:27:23;-6.10;99.90
23259;DHT22;11798;51.528;7.240;2022-12-18T08:29:49;-6.00;99.90
23259;DHT22;11798;51.528;7.240;2022-12-18T08:32:14;-5.90;99.90
23259;DHT22;11798;51.528;7.240;2022-12-18T08:34:40;-5.90;99.90
23259;DHT22;11798;51.528;7.240;2022-12-18T08:37:05;-5.80;99.90
23259;DHT22;11798;51.528;7.240;2022-12-18T08:39:31;-5.60;99.90
23259;DHT22;11798;51.528;7.240;2022-12-18T08:41:57;-5.60;99.90
23259;DHT22;11798;51.528;7.240;2022-12-18T08:44:42;-5.60;99.90
23259;DHT22;11798;51.528;7.240;2022-12-18T08:47:08;-5.60;99.90
23259;DHT22;11798;51.528;7.240;2022-12-18T08:49:34;-5.50;99.90
23259;DHT22;11798;51.528;7.240;2022-12-18T08:52:00;-5.50;99.90
23259;DHT22;11798;51.528;7.240;2022-12-18T08:54:27;-5.40;99.90
23259;DHT22;11798;51.528;7.240;2022-12-18T08:56:52;-5.30;99.90
23259;DHT22;11798;51.528;7.240;2022-12-18T08:59:18;-5.20;99.90
23259;DHT22;11798;51.528;7.240;2022-12-18T09:01:44;-5.10;99.90
23259;DHT22;11798;51.528;7.240;2022-12-18T09:04:10;-5.10;99.90
23259;DHT22;11798;51.528;7.240;2022-12-18T09:06:36;-5.00;99.90
23259;DHT22;11798;51.528;7.240;2022-12-18T09:09:03;-5.00;99.90
23259;DHT22;11798;51.528;7.240;2022-12-18T09:11:31;-5.00;99.90
23259;DHT22;11798;51.528;7.240;2022-12-18T09:13:59;-4.90;99.90
23259;DHT22;11798;51.528;7.240;2022-12-18T09:16:26;-4.70;99.90
23259;DHT22;11798;51.528;7.240;2022-12-18T09:18:56;-4.70;99.90
23259;DHT22;11798;51.528;7.240;2022-12-18T09:21:26;-4.60;99.90
23259;DHT22;11798;51.528;7.240;2022-12-18T09:23:54;-4.50;99.90
23259;DHT22;11798;51.528;7.240;2022-12-18T09:26:21;-4.40;99.90
23259;DHT22;11798;51.528;7.240;2022-12-18T09:28:47;-4.40;99.90
23259;DHT22;11798;51.528;7.240;2022-12-18T09:31:17;-4.30;99.90
23259;DHT22;11798;51.528;7.240;2022-12-18T09:33:43;-4.30;99.90
23259;DHT22;11798;51.528;7.240;2022-12-18T09:36:12;-4.20;99.90
23259;DHT22;11798;51.528;7.240;2022-12-18T09:38:38;-4.10;99.90
23259;DHT22;11798;51.528;7.240;2022-12-18T09:44:22;-3.90;99.90
23259;DHT22;11798;51.528;7.240;2022-12-18T09:47:05;-3.90;99.90
23259;DHT22;11798;51.528;7.240;2022-12-18T09:49:37;-3.80;99.90
23259;DHT22;11798;51.528;7.240;2022-12-18T09:52:19;-3.80;99.90
23259;DHT22;11798;51.528;7.240;2022-12-18T09:54:56;-3.70;99.90
23259;DHT22;11798;51.528;7.240;2022-12-18T09:57:25;-3.60;99.90
23259;DHT22;11798;51.528;7.240;2022-12-18T09:59:58;-3.50;99.90
23259;DHT22;11798;51.528;7.240;2022-12-18T10:02:26;-3.30;99.90
23259;DHT22;11798;51.528;7.240;2022-12-18T10:05:12;-3.20;99.90
23259;DHT22;11798;51.528;7.240;2022-12-18T10:13:48;-2.90;99.90
23259;DHT22;11798;51.528;7.240;2022-12-18T10:16:03;-2.90;99.90
23259;DHT22;11798;51.528;7.240;2022-12-18T10:21:10;-2.70;99.90
23259;DHT22;11798;51.528;7.240;2022-12-18T10:24:02;-2.60;99.90
23259;DHT22;11798;51.528;7.240;2022-12-18T10:26:33;-2.50;99.90
23259;DHT22;11798;51.528;7.240;2022-12-18T10:28:59;-2.50;99.90
23259;DHT22;11798;51.528;7.240;2022-12-18T10:31:25;-2.40;99.90
23259;DHT22;11798;51.528;7.240;2022-12-18T10:33:53;-2.30;99.90
23259;DHT22;11798;51.528;7.240;2022-12-18T10:36:20;-2.30;99.90
23259;DHT22;11798;51.528;7.240;2022-12-18T10:38:45;-2.20;99.90
23259;DHT22;11798;51.528;7.240;2022-12-18T10:43:42;-2.00;99.90
23259;DHT22;11798;51.528;7.240;2022-12-18T10:51:05;-1.90;99.90
23259;DHT22;11798;51.528;7.240;2022-12-18T10:53:33;-1.70;99.90
23259;DHT22;11798;51.528;7.240;2022-12-18T10:56:00;-1.60;99.90
23259;DHT22;11798;51.528;7.240;2022-12-18T10:58:34;-1.60;99.90
23259;DHT22;11798;51.528;7.240;2022-12-18T11:01:13;-1.50;99.90
23259;DHT22;11798;51.528;7.240;2022-12-18T11:08:34;-1.20;99.90
23259;DHT22;11798;51.528;7.240;2022-12-18T11:11:00;-1.20;99.90
23259;DHT22;11798;51.528;7.240;2022-12-18T11:13:28;-1.20;99.90
23259;DHT22;11798;51.528;7.240;2022-12-18T11:15:54;-1.10;99.90
23259;DHT22;11798;51.528;7.240;2022-12-18T11:18:34;-1.00;99.90
23259;DHT22;11798;51.528;7.240;2022-12-18T11:21:09;-0.90;99.90
23259;DHT22;11798;51.528;7.240;2022-12-18T11:23:49;-0.80;99.90
23259;DHT22;11798;51.528;7.240;2022-12-18T11:26:16;-0.80;99.90
23259;DHT22;11798;51.528;7.240;2022-12-18T11:28:49;-0.70;99.90
23259;DHT22;11798;51.528;7.240;2022-12-18T11:31:25;-0.70;99.90
23259;DHT22;11798;51.528;7.240;2022-12-18T11:34:08;-0.70;99.90
23259;DHT22;11798;51.528;7.240;2022-12-18T11:36:40;-0.70;99.90
23259;DHT22;11798;51.528;7.240;2022-12-18T11:39:31;-0.50;99.90
23259;DHT22;11798;51.528;7.240;2022-12-18T11:47:27;-0.20;99.90
23259;DHT22;11798;51.528;7.240;2022-12-18T11:49:55;-0.20;99.90
23259;DHT22;11798;51.528;7.240;2022-12-18T11:52:31;-0.10;99.90
23259;DHT22;11798;51.528;7.240;2022-12-18T11:55:04;-0.10;99.90
23259;DHT22;11798;51.528;7.240;2022-12-18T12:00:25;0.10;99.90
23259;DHT22;11798;51.528;7.240;2022-12-18T12:03:27;0.10;99.90
23259;DHT22;11798;51.528;7.240;2022-12-18T12:06:34;0.10;99.90
23259;DHT22;11798;51.528;7.240;2022-12-18T12:09:00;0.20;99.90
23259;DHT22;11798;51.528;7.240;2022-12-18T12:19:44;0.10;99.90
23259;DHT22;11798;51.528;7.240;2022-12-18T12:36:08;0.40;99.90
23259;DHT22;11798;51.528;7.240;2022-12-18T12:38:46;0.40;99.90
23259;DHT22;11798;51.528;7.240;2022-12-18T12:41:19;0.20;99.90
23259;DHT22;11798;51.528;7.240;2022-12-18T12:44:07;0.40;99.90
23259;DHT22;11798;51.528;7.240;2022-12-18T12:46:37;0.50;99.90
23259;DHT22;11798;51.528;7.240;2022-12-18T12:49:11;0.50;99.90
23259;DHT22;11798;51.528;7.240;2022-12-18T12:51:41;0.70;99.90
23259;DHT22;11798;51.528;7.240;2022-12-18T12:54:17;0.70;99.90
23259;DHT22;11798;51.528;7.240;2022-12-18T12:56:57;0.80;99.90
23259;DHT22;11798;51.528;7.240;2022-12-18T13:02:36;0.70;99.90
23259;DHT22;11798;51.528;7.240;2022-12-18T13:05:22;0.70;99.90
23259;DHT22;11798;51.528;7.240;2022-12-18T13:08:31;0.70;99.90
23259;DHT22;11798;51.528;7.240;2022-12-18T13:14:39;0.80;99.90
23259;DHT22;11798;51.528;7.240;2022-12-18T13:20:05;0.90;99.90
23259;DHT22;11798;51.528;7.240;2022-12-18T13:22:43;1.00;99.90
23259;DHT22;11798;51.528;7.240;2022-12-18T13:25:29;0.90;99.90
23259;DHT22;11798;51.528;7.240;2022-12-18T13:28:07;0.90;99.90
23259;DHT22;11798;51.528;7.240;2022-12-18T13:36:27;1.10;99.90
23259;DHT22;11798;51.528;7.240;2022-12-18T13:41:44;0.80;99.90
23259;DHT22;11798;51.528;7.240;2022-12-18T13:46:56;0.70;99.90
23259;DHT22;11798;51.528;7.240;2022-12-18T13:52:03;0.80;99.90
23259;DHT22;11798;51.528;7.240;2022-12-18T13:54:40;0.90;99.90
23259;DHT22;11798;51.528;7.240;2022-12-18T13:59:54;1.10;99.90
23259;DHT22;11798;51.528;7.240;2022-12-18T14:02:26;1.10;99.90
23259;DHT22;11798;51.528;7.240;2022-12-18T14:04:52;1.10;99.90
23259;DHT22;11798;51.528;7.240;2022-12-18T14:07:24;1.20;99.90
23259;DHT22;11798;51.528;7.240;2022-12-18T14:09:55;1.30;99.90
23259;DHT22;11798;51.528;7.240;2022-12-18T14:12:27;1.30;99.90
23259;DHT22;11798;51.528;7.240;2022-12-18T14:17:54;1.40;99.90
23259;DHT22;11798;51.528;7.240;2022-12-18T14:20:21;1.40;99.90
23259;DHT22;11798;51.528;7.240;2022-12-18T14:22:48;1.40;99.90
23259;DHT22;11798;51.528;7.240;2022-12-18T14:25:23;1.40;99.90
23259;DHT22;11798;51.528;7.240;2022-12-18T14:28:07;1.50;99.90
23259;DHT22;11798;51.528;7.240;2022-12-18T14:30:42;1.50;99.90
23259;DHT22;11798;51.528;7.240;2022-12-18T14:33:15;1.50;99.90
23259;DHT22;11798;51.528;7.240;2022-12-18T14:36:00;1.50;99.90
23259;DHT22;11798;51.528;7.240;2022-12-18T14:38:37;1.50;99.90
23259;DHT22;11798;51.528;7.240;2022-12-18T14:41:15;1.60;99.90
23259;DHT22;11798;51.528;7.240;2022-12-18T14:43:43;1.60;99.90
23259;DHT22;11798;51.528;7.240;2022-12-18T14:48:54;1.60;99.90
23259;DHT22;11798;51.528;7.240;2022-12-18T14:51:25;1.70;99.90
23259;DHT22;11798;51.528;7.240;2022-12-18T14:54:05;1.70;99.90
23259;DHT22;11798;51.528;7.240;2022-12-18T14:56:49;1.80;99.90
23259;DHT22;11798;51.528;7.240;2022-12-18T14:59:21;1.80;99.90
23259;DHT22;11798;51.528;7.240;2022-12-18T15:02:27;1.70;99.90
23259;DHT22;11798;51.528;7.240;2022-12-18T15:05:05;1.70;99.90
23259;DHT22;11798;51.528;7.240;2022-12-18T15:07:46;1.60;99.90
23259;DHT22;11798;51.528;7.240;2022-12-18T15:10:23;1.60;99.90
23259;DHT22;11798;51.528;7.240;2022-12-18T15:18:03;1.70;99.90
23259;DHT22;11798;51.528;7.240;2022-12-18T15:20:31;1.70;99.90
23259;DHT22;11798;51.528;7.240;2022-12-18T15:22:58;1.60;99.90
23259;DHT22;11798;51.528;7.240;2022-12-18T15:25:34;1.60;99.90
23259;DHT22;11798;51.528;7.240;2022-12-18T15:28:02;1.70;99.90
23259;DHT22;11798;51.528;7.240;2022-12-18T15:30:28;1.70;99.90
23259;DHT22;11798;51.528;7.240;2022-12-18T15:33:33;1.60;99.90
23259;DHT22;11798;51.528;7.240;2022-12-18T15:36:01;1.60;99.90
23259;DHT22;11798;51.528;7.240;2022-12-18T15:38:27;1.60;99.90
23259;DHT22;11798;51.528;7.240;2022-12-18T15:40:54;1.60;99.90
23259;DHT22;11798;51.528;7.240;2022-12-18T15:43:24;1.50;99.90
23259;DHT22;11798;51.528;7.240;2022-12-18T15:46:09;1.50;99.90
23259;DHT22;11798;51.528;7.240;2022-12-18T15:48:40;1.50;99.90
23259;DHT22;11798;51.528;7.240;2022-12-18T15:51:14;1.50;99.90
23259;DHT22;11798;51.528;7.240;2022-12-18T15:53:41;1.50;99.90
23259;DHT22;11798;51.528;7.240;2022-12-18T15:56:11;1.50;99.90
23259;DHT22;11798;51.528;7.240;2022-12-18T15:58:55;1.40;99.90
23259;DHT22;11798;51.528;7.240;2022-12-18T16:01:23;1.50;99.90
23259;DHT22;11798;51.528;7.240;2022-12-18T16:03:49;1.40;99.90
23259;DHT22;11798;51.528;7.240;2022-12-18T16:06:15;1.30;99.90
23259;DHT22;11798;51.528;7.240;2022-12-18T16:08:40;1.30;99.90
23259;DHT22;11798;51.528;7.240;2022-12-18T16:13:45;1.30;99.90
23259;DHT22;11798;51.528;7.240;2022-12-18T16:16:10;1.30;99.90
23259;DHT22;11798;51.528;7.240;2022-12-18T16:18:36;1.30;99.90
23259;DHT22;11798;51.528;7.240;2022-12-18T16:21:02;1.20;99.90
23259;DHT22;11798;51.528;7.240;2022-12-18T16:23:27;1.30;99.90
23259;DHT22;11798;51.528;7.240;2022-12-18T16:25:53;1.30;99.90
23259;DHT22;11798;51.528;7.240;2022-12-18T16:28:19;1.20;99.90
23259;DHT22;11798;51.528;7.240;2022-12-18T16:30:44;1.20;99.90
23259;DHT22;11798;51.528;7.240;2022-12-18T16:33:10;1.10;99.90
23259;DHT22;11798;51.528;7.240;2022-12-18T16:35:36;1.20;99.90
23259;DHT22;11798;51.528;7.240;2022-12-18T16:38:02;1.20;99.90
23259;DHT22;11798;51.528;7.240;2022-12-18T16:40:31;1.20;99.90
23259;DHT22;11798;51.528;7.240;2022-12-18T16:42:57;1.30;99.90
23259;DHT22;11798;51.528;7.240;2022-12-18T16:45:22;1.30;99.90
23259;DHT22;11798;51.528;7.240;2022-12-18T16:47:48;1.30;99.90
23259;DHT22;11798;51.528;7.240;2022-12-18T16:50:14;1.30;99.90
23259;DHT22;11798;51.528;7.240;2022-12-18T16:52:40;1.20;99.90
23259;DHT22;11798;51.528;7.240;2022-12-18T16:55:06;1.20;99.90
23259;DHT22;11798;51.528;7.240;2022-12-18T16:57:32;1.10;99.90
23259;DHT22;11798;51.528;7.240;2022-12-18T16:59:58;1.20;99.90
23259;DHT22;11798;51.528;7.240;2022-12-18T17:02:25;1.20;99.90
23259;DHT22;11798;51.528;7.240;2022-12-18T17:04:56;1.20;99.90
23259;DHT22;11798;51.528;7.240;2022-12-18T17:07:23;1.20;99.90
23259;DHT22;11798;51.528;7.240;2022-12-18T17:09:49;1.10;99.90
23259;DHT22;11798;51.528;7.240;2022-12-18T17:12:15;1.10;99.90
23259;DHT22;11798;51.528;7.240;2022-12-18T17:14:41;1.10;99.90
23259;DHT22;11798;51.528;7.240;2022-12-18T17:17:07;1.20;99.90
23259;DHT22;11798;51.528;7.240;2022-12-18T17:19:32;1.20;99.90
23259;DHT22;11798;51.528;7.240;2022-12-18T17:21:58;1.10;99.90
23259;DHT22;11798;51.528;7.240;2022-12-18T17:24:24;1.10;99.90
23259;DHT22;11798;51.528;7.240;2022-12-18T17:26:49;1.10;99.90
23259;DHT22;11798;51.528;7.240;2022-12-18T17:29:18;1.10;99.90
23259;DHT22;11798;51.528;7.240;2022-12-18T17:31:44;1.10;99.90
23259;DHT22;11798;51.528;7.240;2022-12-18T17:34:11;1.10;99.90
23259;DHT22;11798;51.528;7.240;2022-12-18T17:36:37;1.10;99.90
23259;DHT22;11798;51.528;7.240;2022-12-18T17:39:04;1.20;99.90
23259;DHT22;11798;51.528;7.240;2022-12-18T17:41:30;1.10;99.90
23259;DHT22;11798;51.528;7.240;2022-12-18T17:43:58;1.10;99.90
23259;DHT22;11798;51.528;7.240;2022-12-18T17:46:25;1.10;99.90
23259;DHT22;11798;51.528;7.240;2022-12-18T17:48:51;1.10;99.90
23259;DHT22;11798;51.528;7.240;2022-12-18T17:51:19;1.10;99.90